Time;durP1;ratioP1;P1;durP2;ratioP2;P2;SDS_P1;SDS_P2;PMS_P1;PMS_P2;Temp;Humidity;BMP_temperature;BMP_pressure;BME280_temperature;BME280_humidity;BME280_pressure;Samples;Min_cycle;Max_cycle;Signal;HPM_P1;HPM_P2
2022/06/26 04:02:26;;;;;;;14.90;13.90;;;19.90;99.90;;;;;;5028919;23;20943;-65
2022/06/26 04:04:53;;;;;;;15.50;14.40;;;19.90;99.90;;;;;;4944223;29;20504;-65
2022/06/26 04:07:20;;;;;;;15.00;13.90;;;19.90;99.90;;;;;;4951979;29;20548;-66
2022/06/26 04:09:46;;;;;;;15.63;14.50;;;19.90;99.90;;;;;;4951365;28;20468;-66
2022/06/26 04:12:13;;;;;;;14.83;13.93;;;20.00;99.90;;;;;;4935690;29;20489;-66
2022/06/26 04:14:41;;;;;;;13.63;12.73;;;20.00;99.90;;;;;;4936017;29;20916;-66
2022/06/26 04:17:08;;;;;;;14.03;13.07;;;20.00;99.90;;;;;;4935962;29;20581;-66
2022/06/26 04:19:36;;;;;;;15.33;14.23;;;20.00;99.90;;;;;;4935504;29;20466;-66
2022/06/26 04:22:03;;;;;;;15.23;14.13;;;20.10;99.90;;;;;;4935766;29;20482;-65
2022/06/26 04:24:29;;;;;;;14.20;13.20;;;20.30;99.90;;;;;;4935769;29;20472;-65
2022/06/26 04:26:56;;;;;;;12.70;11.90;;;20.70;99.90;;;;;;4935952;29;20495;-66
2022/06/26 04:29:23;;;;;;;12.57;11.77;;;21.50;99.90;;;;;;4935233;29;20492;-66
2022/06/26 04:31:49;;;;;;;12.20;11.47;;;22.00;99.90;;;;;;4935074;29;21035;-66
2022/06/26 04:34:16;;;;;;;11.23;10.53;;;22.50;99.90;;;;;;4936034;29;20472;-66
2022/06/26 04:36:45;;;;;;;11.47;10.77;;;23.20;99.90;;;;;;4935443;29;20521;-65
2022/06/26 04:39:12;;;;;;;11.47;10.87;;;23.60;99.90;;;;;;4935435;29;20594;-66
2022/06/26 04:41:39;;;;;;;11.50;10.90;;;24.10;99.90;;;;;;4935060;29;20490;-66
2022/06/26 04:44:07;;;;;;;10.80;10.23;;;24.40;99.90;;;;;;4935023;29;20832;-66
2022/06/26 04:46:35;;;;;;;11.20;10.70;;;24.80;99.90;;;;;;4935139;29;20926;-66
2022/06/26 04:49:02;;;;;;;10.77;10.07;;;24.90;99.90;;;;;;4935506;29;20524;-66
2022/06/26 04:51:28;;;;;;;11.37;10.67;;;25.00;99.90;;;;;;4934806;29;20560;-66
2022/06/26 04:53:56;;;;;;;10.70;10.10;;;25.40;99.90;;;;;;4931405;29;20476;-66
2022/06/26 04:56:23;;;;;;;10.33;9.73;;;25.60;99.90;;;;;;4935288;29;20464;-66
2022/06/26 04:58:50;;;;;;;10.27;9.87;;;26.00;99.90;;;;;;4934829;29;20479;-66
2022/06/26 05:01:16;;;;;;;10.80;10.10;;;26.30;99.90;;;;;;4934847;29;21048;-66
2022/06/26 05:03:43;;;;;;;10.47;10.00;;;26.50;99.90;;;;;;4935151;29;20858;-66
2022/06/26 05:06:10;;;;;;;10.17;9.73;;;26.80;99.90;;;;;;4934957;29;20503;-66
2022/06/26 05:08:37;;;;;;;9.67;9.27;;;26.90;99.90;;;;;;4935020;29;20588;-66
2022/06/26 05:11:05;;;;;;;10.03;9.53;;;26.70;99.90;;;;;;4934652;29;20494;-66
2022/06/26 05:13:32;;;;;;;10.13;9.60;;;26.70;99.90;;;;;;4935628;29;20472;-66
2022/06/26 05:15:59;;;;;;;10.33;9.80;;;26.90;99.90;;;;;;4936366;29;20469;-66
2022/06/26 05:18:26;;;;;;;10.00;9.50;;;27.00;99.90;;;;;;4936190;29;20465;-66
2022/06/26 05:20:52;;;;;;;9.80;9.50;;;27.20;99.90;;;;;;4935194;29;20491;-66
2022/06/26 05:23:19;;;;;;;9.20;8.80;;;27.30;99.90;;;;;;4934656;29;20469;-66
2022/06/26 05:25:46;;;;;;;9.47;9.00;;;27.50;99.90;;;;;;4934364;29;20485;-66
2022/06/26 05:28:14;;;;;;;9.13;8.83;;;27.90;99.90;;;;;;4934877;29;20484;-66
2022/06/26 05:30:41;;;;;;;9.57;9.17;;;28.20;99.90;;;;;;4933923;29;20495;-66
2022/06/26 05:33:08;;;;;;;9.37;8.97;;;28.40;99.90;;;;;;4934987;29;20469;-66
2022/06/26 05:35:35;;;;;;;9.03;8.67;;;28.10;99.90;;;;;;4934168;29;20468;-66
2022/06/26 05:38:02;;;;;;;9.60;9.00;;;28.00;99.90;;;;;;4934617;29;20475;-66
2022/06/26 05:40:28;;;;;;;9.40;8.90;;;28.00;99.90;;;;;;4934176;29;20483;-66
2022/06/26 05:42:56;;;;;;;9.63;9.20;;;27.80;99.90;;;;;;4927268;29;20493;-66
2022/06/26 05:45:24;;;;;;;9.17;8.80;;;27.80;99.90;;;;;;4933793;29;20491;-66
2022/06/26 05:47:50;;;;;;;9.10;8.70;;;27.60;99.90;;;;;;4934385;29;20477;-66
2022/06/26 05:50:17;;;;;;;8.03;7.73;;;27.40;99.90;;;;;;4934022;29;20469;-66
2022/06/26 05:52:44;;;;;;;8.80;8.30;;;27.00;99.90;;;;;;4934753;29;20470;-66
2022/06/26 05:55:10;;;;;;;10.20;9.63;;;26.60;99.90;;;;;;4934104;29;20469;-66
2022/06/26 05:57:37;;;;;;;10.40;9.80;;;26.40;99.90;;;;;;4934941;29;20475;-65
2022/06/26 06:00:05;;;;;;;8.97;8.67;;;26.20;99.90;;;;;;4933938;29;20528;-66
2022/06/26 06:02:34;;;;;;;9.43;9.03;;;26.00;99.90;;;;;;4934517;29;20526;-66
2022/06/26 06:05:00;;;;;;;9.67;9.27;;;26.00;99.90;;;;;;4934286;29;20468;-65
2022/06/26 06:07:27;;;;;;;9.33;8.93;;;26.00;99.90;;;;;;4934360;29;20513;-65
2022/06/26 06:09:54;;;;;;;9.23;8.83;;;26.00;99.90;;;;;;4933956;29;20516;-65
2022/06/26 06:12:20;;;;;;;9.07;8.47;;;26.00;99.90;;;;;;4934335;29;20486;-66
2022/06/26 06:14:47;;;;;;;9.23;8.83;;;25.90;99.90;;;;;;4933922;29;20466;-65
2022/06/26 06:20:00;;;;;;;9.87;9.37;;;25.50;99.90;;;;;;4933542;29;20568;-65
2022/06/26 06:22:27;;;;;;;9.90;9.50;;;25.50;99.90;;;;;;4933959;29;21038;-65
2022/06/26 06:24:53;;;;;;;8.47;8.10;;;25.70;99.90;;;;;;4933872;29;20477;-65
2022/06/26 06:27:20;;;;;;;8.20;7.87;;;26.40;99.90;;;;;;4934218;29;20499;-66
2022/06/26 06:29:47;;;;;;;8.33;8.03;;;27.10;99.90;;;;;;4933433;29;20475;-66
2022/06/26 06:32:13;;;;;;;8.77;8.17;;;27.20;99.90;;;;;;4930058;29;20496;-66
2022/06/26 06:34:40;;;;;;;8.30;8.00;;;27.10;99.90;;;;;;4933384;29;20473;-66
2022/06/26 06:37:08;;;;;;;8.10;7.80;;;27.10;99.90;;;;;;4934139;29;20950;-66
2022/06/26 06:39:35;;;;;;;7.97;7.60;;;26.90;99.90;;;;;;4933790;29;20473;-66
2022/06/26 06:42:02;;;;;;;8.73;8.43;;;26.50;99.90;;;;;;4933847;29;20632;-66
2022/06/26 06:44:29;;;;;;;8.63;8.27;;;26.30;99.90;;;;;;4933221;29;20876;-66
2022/06/26 06:46:55;;;;;;;8.70;8.30;;;26.20;99.90;;;;;;4933686;29;20486;-66
2022/06/26 06:49:22;;;;;;;8.50;8.10;;;26.20;99.90;;;;;;4933555;29;20475;-66
2022/06/26 06:51:49;;;;;;;8.07;7.60;;;26.60;99.90;;;;;;4933122;29;20494;-66
2022/06/26 06:54:17;;;;;;;7.27;6.87;;;27.70;99.90;;;;;;4933485;29;20819;-66
2022/06/26 06:56:43;;;;;;;6.80;6.60;;;28.70;99.90;;;;;;4933479;29;20465;-66
2022/06/26 06:59:10;;;;;;;7.30;7.00;;;29.40;99.90;;;;;;4933407;29;20469;-66
2022/06/26 07:01:37;;;;;;;6.83;6.63;;;30.00;99.90;;;;;;4933281;29;20871;-66
2022/06/26 07:04:03;;;;;;;7.03;6.63;;;30.60;99.90;;;;;;4926673;29;20898;-66
2022/06/26 07:06:30;;;;;;;6.90;6.60;;;30.80;99.90;;;;;;4933254;29;20851;-66
2022/06/26 07:08:57;;;;;;;7.00;6.80;;;30.90;99.90;;;;;;4933559;29;20480;-66
2022/06/26 07:11:25;;;;;;;6.10;6.00;;;31.10;99.90;;;;;;4933390;29;20496;-66
2022/06/26 07:13:52;;;;;;;6.10;5.90;;;31.80;99.90;;;;;;4933228;29;20473;-66
2022/06/26 07:16:18;;;;;;;5.83;5.67;;;32.30;99.90;;;;;;4933312;29;20547;-66
2022/06/26 07:18:45;;;;;;;5.70;5.60;;;32.50;99.90;;;;;;4933340;29;20474;-66
2022/06/26 07:21:13;;;;;;;5.10;5.00;;;32.90;99.80;;;;;;4932911;29;20485;-66
2022/06/26 07:23:39;;;;;;;5.23;5.13;;;33.40;97.50;;;;;;4933084;29;20978;-66
2022/06/26 07:26:06;;;;;;;5.60;5.50;;;33.50;96.60;;;;;;4932813;29;20485;-66
2022/06/26 07:28:34;;;;;;;4.93;4.70;;;33.70;95.30;;;;;;4933067;29;20482;-66
2022/06/26 07:31:01;;;;;;;5.10;5.00;;;33.80;95.40;;;;;;4932816;29;20490;-66
2022/06/26 07:36:12;;;;;;;5.20;5.03;;;34.30;94.50;;;;;;4932710;29;20822;-66
2022/06/26 07:38:39;;;;;;;4.80;4.73;;;34.50;93.00;;;;;;4932736;29;20473;-66
2022/06/26 07:41:05;;;;;;;5.20;5.10;;;34.10;92.70;;;;;;4932819;29;20489;-66
2022/06/26 07:43:33;;;;;;;4.63;4.53;;;34.00;93.40;;;;;;4925310;29;20476;-66
2022/06/26 07:46:00;;;;;;;4.63;4.53;;;34.40;92.90;;;;;;4933033;29;21012;-66
2022/06/26 07:48:27;;;;;;;4.10;4.10;;;34.70;90.60;;;;;;4934719;29;20845;-66
2022/06/26 07:50:53;;;;;;;4.40;4.37;;;35.20;90.50;;;;;;4935946;29;20485;-66
2022/06/26 07:53:20;;;;;;;3.87;3.87;;;35.40;89.50;;;;;;4936869;29;20961;-66
2022/06/26 07:55:47;;;;;;;3.30;3.20;;;35.80;88.30;;;;;;4935922;29;20469;-66
2022/06/26 07:58:14;;;;;;;3.63;3.50;;;35.60;83.60;;;;;;4936765;29;20544;-66
2022/06/26 08:00:42;;;;;;;4.00;3.70;;;35.30;85.30;;;;;;4935759;29;20506;-66
2022/06/26 08:03:11;;;;;;;3.80;3.70;;;35.10;83.10;;;;;;4936610;29;20841;-66
2022/06/26 08:05:39;;;;;;;3.63;3.53;;;35.00;84.20;;;;;;4935884;29;20984;-66
2022/06/26 08:08:07;;;;;;;3.70;3.60;;;34.90;83.70;;;;;;4936622;29;20949;-66
2022/06/26 08:10:34;;;;;;;3.53;3.53;;;34.70;82.30;;;;;;4935913;29;20489;-66
2022/06/26 08:13:01;;;;;;;4.07;3.87;;;34.90;83.50;;;;;;4936658;29;20488;-66
2022/06/26 08:15:28;;;;;;;3.10;3.10;;;35.00;82.00;;;;;;4935795;29;20469;-66
2022/06/26 08:17:56;;;;;;;3.17;3.03;;;34.90;81.10;;;;;;4936218;29;20957;-66
2022/06/26 08:20:23;;;;;;;3.20;3.00;;;35.00;80.10;;;;;;4935546;29;20473;-66
2022/06/26 08:22:50;;;;;;;3.20;3.10;;;35.10;78.80;;;;;;4936462;29;20470;-66
2022/06/26 08:25:17;;;;;;;3.23;3.03;;;35.20;78.40;;;;;;4935796;29;20830;-66
2022/06/26 08:27:44;;;;;;;3.13;3.13;;;35.30;78.50;;;;;;4936009;29;20493;-66
2022/06/26 08:30:12;;;;;;;3.40;3.40;;;35.20;77.80;;;;;;4935310;29;20472;-66
2022/06/26 08:32:39;;;;;;;3.47;3.47;;;35.40;76.00;;;;;;4935883;29;20482;-66
2022/06/26 08:35:09;;;;;;;3.60;3.50;;;35.40;76.20;;;;;;4935410;29;20552;-65
2022/06/26 08:37:35;;;;;;;3.40;3.33;;;34.50;76.90;;;;;;4936602;29;20462;-66
2022/06/26 08:40:02;;;;;;;3.60;3.50;;;34.50;78.30;;;;;;4935795;29;20476;-65
2022/06/26 08:42:31;;;;;;;3.50;3.50;;;34.70;77.70;;;;;;4936104;29;20485;-66
2022/06/26 08:44:59;;;;;;;3.03;3.00;;;35.00;77.20;;;;;;4935315;29;20958;-65
2022/06/26 08:47:27;;;;;;;3.53;3.50;;;34.80;76.40;;;;;;4935789;29;20493;-65
2022/06/26 08:49:54;;;;;;;3.40;3.40;;;35.00;76.40;;;;;;4935005;29;20477;-65
2022/06/26 08:52:22;;;;;;;3.27;3.13;;;34.80;74.90;;;;;;4936470;29;20497;-66
2022/06/26 08:54:50;;;;;;;2.73;2.70;;;34.80;74.60;;;;;;4937333;29;20476;-65
2022/06/26 08:57:17;;;;;;;3.00;3.00;;;34.90;74.30;;;;;;4937113;29;20461;-66
2022/06/26 08:59:44;;;;;;;3.50;3.30;;;34.60;73.90;;;;;;4936058;29;20520;-65
2022/06/26 09:02:12;;;;;;;2.73;2.73;;;34.40;73.30;;;;;;4935824;29;20497;-65
2022/06/26 09:04:39;;;;;;;2.90;2.90;;;34.60;74.60;;;;;;4928358;29;20584;-65
2022/06/26 09:07:07;;;;;;;2.80;2.70;;;34.70;74.20;;;;;;4935437;29;20493;-65
2022/06/26 09:09:39;;;;;;;3.17;3.17;;;34.30;73.80;;;;;;4935294;29;20465;-65
2022/06/26 09:12:07;;;;;;;3.40;3.40;;;33.70;74.80;;;;;;4935537;29;20524;-65
2022/06/26 09:14:34;;;;;;;3.03;2.93;;;33.50;75.50;;;;;;4934735;29;20473;-65
2022/06/26 09:17:02;;;;;;;3.23;3.13;;;33.80;75.70;;;;;;4935175;29;20465;-65
2022/06/26 09:19:33;;;;;;;3.03;3.03;;;34.00;75.20;;;;;;4934819;29;20473;-65
2022/06/26 09:22:08;;;;;;;2.80;2.70;;;34.10;74.30;;;;;;4934833;29;20485;-65
2022/06/26 09:24:37;;;;;;;2.60;2.60;;;34.20;72.60;;;;;;4935071;29;20469;-65
2022/06/26 09:27:06;;;;;;;2.40;2.40;;;34.10;72.80;;;;;;4935208;29;20494;-66
2022/06/26 09:29:33;;;;;;;2.63;2.53;;;34.00;71.40;;;;;;4934636;29;20473;-66
2022/06/26 09:32:08;;;;;;;2.70;2.50;;;33.50;72.20;;;;;;4935595;29;20493;-66
2022/06/26 09:34:35;;;;;;;2.87;2.77;;;33.00;73.50;;;;;;4934844;29;20489;-66
2022/06/26 09:37:04;;;;;;;2.60;2.60;;;32.40;73.80;;;;;;4935319;29;20839;-66
2022/06/26 09:39:33;;;;;;;2.80;2.80;;;32.20;75.20;;;;;;4934709;29;20831;-66
2022/06/26 09:42:16;;;;;;;2.77;2.77;;;32.40;75.80;;;;;;4929802;29;20884;-66
2022/06/26 09:44:47;;;;;;;2.60;2.60;;;32.60;75.00;;;;;;4934261;29;20526;-66
2022/06/26 09:47:25;;;;;;;3.07;2.87;;;32.80;74.20;;;;;;4934604;29;20493;-66
2022/06/26 09:49:53;;;;;;;2.50;2.50;;;32.80;72.20;;;;;;4933991;29;20479;-66
2022/06/26 09:52:21;;;;;;;2.40;2.40;;;32.90;72.90;;;;;;4934698;29;20903;-66
2022/06/26 09:54:49;;;;;;;2.80;2.70;;;32.90;73.10;;;;;;4934271;29;20472;-66
2022/06/26 09:57:18;;;;;;;2.83;2.83;;;32.90;71.80;;;;;;4934731;29;20475;-66
2022/06/26 09:59:45;;;;;;;2.80;2.80;;;32.70;72.00;;;;;;4933803;29;20480;-66
2022/06/26 10:07:48;;;;;;;2.57;2.57;;;32.20;72.40;;;;;;4934494;29;20594;-66
2022/06/26 10:10:18;;;;;;;3.30;2.93;;;31.90;72.30;;;;;;4933573;29;20888;-66
2022/06/26 10:12:48;;;;;;;2.90;2.90;;;31.80;73.50;;;;;;4934546;29;20472;-66
2022/06/26 10:15:17;;;;;;;3.00;3.00;;;31.60;75.10;;;;;;4934372;29;20840;-66
2022/06/26 10:18:03;;;;;;;3.10;3.00;;;31.50;76.20;;;;;;4934155;29;20468;-67
2022/06/26 10:20:32;;;;;;;3.03;2.93;;;31.40;76.70;;;;;;4933431;29;20977;-66
2022/06/26 10:22:58;;;;;;;2.90;2.90;;;31.20;76.10;;;;;;4934189;29;20530;-67
2022/06/26 10:25:27;;;;;;;2.93;2.93;;;31.20;76.10;;;;;;4933586;29;20468;-66
2022/06/26 10:27:55;;;;;;;3.37;3.27;;;31.40;77.20;;;;;;4933946;29;20488;-67
2022/06/26 10:30:24;;;;;;;3.20;3.20;;;31.70;76.30;;;;;;4933197;29;20830;-67
2022/06/26 10:33:09;;;;;;;3.77;3.77;;;31.70;76.60;;;;;;4928489;29;20472;-67
2022/06/26 10:35:40;;;;;;;4.03;3.93;;;31.70;78.30;;;;;;4933197;29;20463;-67
2022/06/26 10:38:21;;;;;;;3.23;3.13;;;31.90;79.10;;;;;;4934002;29;20471;-67
2022/06/26 10:43:46;;;;;;;3.27;3.23;;;32.20;78.30;;;;;;4933464;29;20887;-67
2022/06/26 10:46:14;;;;;;;3.43;3.33;;;32.30;78.90;;;;;;4933672;29;20473;-67
2022/06/26 10:48:51;;;;;;;3.30;3.30;;;32.20;78.70;;;;;;4933369;29;20492;-67
2022/06/26 10:51:25;;;;;;;3.80;3.80;;;31.80;78.10;;;;;;4932928;29;20904;-66
2022/06/26 10:53:52;;;;;;;3.83;3.73;;;31.70;79.40;;;;;;4933588;29;20476;-67
2022/06/26 10:56:18;;;;;;;3.80;3.70;;;31.50;79.80;;;;;;4933626;29;20467;-67
2022/06/26 10:58:49;;;;;;;3.00;3.00;;;31.30;79.50;;;;;;4932961;29;20465;-67
2022/06/26 11:01:17;;;;;;;3.50;3.50;;;31.10;80.80;;;;;;4932958;29;21047;-67
2022/06/26 11:03:44;;;;;;;5.13;3.67;;;31.00;80.70;;;;;;4927194;29;20466;-67
2022/06/26 11:06:14;;;;;;;3.57;3.57;;;31.00;80.30;;;;;;4932832;29;20467;-66
2022/06/26 11:08:44;;;;;;;3.70;3.60;;;30.90;81.00;;;;;;4933090;29;20503;-66
2022/06/26 11:11:14;;;;;;;3.93;3.73;;;30.90;82.00;;;;;;4933238;29;20950;-66
2022/06/26 11:13:51;;;;;;;3.80;3.80;;;30.60;81.90;;;;;;4933061;29;20473;-66
2022/06/26 11:16:18;;;;;;;3.90;3.83;;;30.70;83.30;;;;;;4935108;29;20467;-67
2022/06/26 11:18:45;;;;;;;3.90;3.90;;;30.80;83.70;;;;;;4935637;29;20834;-67
2022/06/26 11:21:11;;;;;;;3.93;3.80;;;30.70;82.00;;;;;;4934289;29;20504;-67
2022/06/26 11:23:40;;;;;;;3.70;3.60;;;30.60;82.20;;;;;;4937865;29;20475;-66
2022/06/26 11:26:08;;;;;;;3.97;3.87;;;30.40;82.10;;;;;;4937153;29;20471;-66
2022/06/26 11:28:38;;;;;;;4.03;3.83;;;30.30;82.80;;;;;;4936564;29;20520;-66
2022/06/26 11:31:08;;;;;;;3.60;3.60;;;30.40;83.60;;;;;;4937357;29;20681;-66
2022/06/26 11:33:37;;;;;;;3.53;3.53;;;30.70;82.80;;;;;;4936674;29;20939;-66
2022/06/26 11:36:06;;;;;;;3.40;3.30;;;30.90;82.60;;;;;;4936827;29;20472;-66
2022/06/26 11:38:34;;;;;;;3.77;3.67;;;31.10;81.20;;;;;;4937063;29;20462;-66
2022/06/26 11:41:03;;;;;;;3.50;3.50;;;31.20;80.60;;;;;;4936783;29;20531;-66
2022/06/26 11:43:30;;;;;;;3.27;3.17;;;31.30;80.90;;;;;;4937586;29;20836;-66
2022/06/26 11:45:58;;;;;;;3.97;3.77;;;31.40;80.30;;;;;;4936744;29;20471;-66
2022/06/26 11:48:26;;;;;;;3.40;3.30;;;31.40;80.80;;;;;;4936859;29;20517;-66
2022/06/26 11:50:54;;;;;;;3.17;3.00;;;31.50;80.40;;;;;;4936108;29;20499;-66
2022/06/26 11:53:24;;;;;;;3.20;3.20;;;31.60;80.00;;;;;;4936323;29;21020;-67
2022/06/26 11:55:53;;;;;;;3.20;3.20;;;31.40;79.80;;;;;;4936463;29;20949;-67
2022/06/26 11:58:22;;;;;;;3.40;3.30;;;31.40;80.00;;;;;;4937165;29;20506;-66
2022/06/26 12:00:49;;;;;;;3.07;3.07;;;31.20;79.80;;;;;;4935928;29;21015;-67
2022/06/26 12:03:16;;;;;;;3.10;3.10;;;31.20;80.60;;;;;;4936716;29;20484;-67
2022/06/26 12:05:45;;;;;;;3.07;3.07;;;31.30;80.30;;;;;;4936133;29;20473;-66
2022/06/26 12:08:17;;;;;;;3.63;3.60;;;31.40;79.50;;;;;;4936642;29;20490;-66
2022/06/26 12:10:47;;;;;;;3.30;3.30;;;31.40;79.50;;;;;;4936266;29;20550;-66
2022/06/26 12:13:22;;;;;;;3.70;3.70;;;31.60;78.50;;;;;;4936471;29;20495;-67
2022/06/26 12:15:49;;;;;;;3.30;3.20;;;31.30;78.80;;;;;;4936100;29;20471;-66
2022/06/26 12:18:15;;;;;;;4.03;3.53;;;31.00;79.20;;;;;;4936300;29;20541;-66
2022/06/26 12:20:44;;;;;;;3.37;3.37;;;31.00;79.80;;;;;;4935231;29;20490;-66
2022/06/26 12:23:11;;;;;;;3.37;3.27;;;31.00;80.20;;;;;;4936360;29;20979;-66
2022/06/26 12:25:40;;;;;;;3.57;3.47;;;31.20;78.80;;;;;;4936208;29;20599;-67
2022/06/26 12:28:07;;;;;;;3.53;3.43;;;31.50;78.90;;;;;;4935991;29;20496;-67
2022/06/26 12:30:35;;;;;;;3.80;3.60;;;31.70;81.40;;;;;;4935354;29;20500;-67
2022/06/26 12:33:04;;;;;;;4.27;4.03;;;31.70;81.80;;;;;;4931176;29;20472;-67
2022/06/26 12:35:32;;;;;;;3.40;3.30;;;31.70;83.00;;;;;;4940082;29;20522;-66
2022/06/26 12:38:01;;;;;;;2.80;2.80;;;31.80;80.80;;;;;;4940785;29;20475;-66
2022/06/26 12:40:29;;;;;;;4.30;4.10;;;32.00;81.00;;;;;;4939685;29;20477;-66
2022/06/26 12:42:55;;;;;;;3.97;3.53;;;32.20;79.70;;;;;;4938434;29;20483;-66
2022/06/26 12:45:22;;;;;;;3.63;3.60;;;32.20;80.00;;;;;;4935396;29;20467;-67
2022/06/26 12:47:50;;;;;;;3.73;3.63;;;32.20;80.70;;;;;;4935606;29;21005;-67
2022/06/26 12:50:17;;;;;;;4.00;3.90;;;32.00;80.70;;;;;;4935067;29;20504;-66
2022/06/26 12:52:44;;;;;;;3.77;3.77;;;31.90;82.20;;;;;;4936241;29;20474;-66
2022/06/26 12:55:12;;;;;;;4.57;4.47;;;31.90;81.70;;;;;;4935281;29;20521;-66
2022/06/26 12:57:39;;;;;;;5.20;5.00;;;31.70;82.60;;;;;;4937368;29;20462;-66
2022/06/26 13:00:08;;;;;;;3.80;3.80;;;31.40;83.50;;;;;;4934880;29;20491;-66
2022/06/26 13:02:35;;;;;;;4.70;4.60;;;31.10;84.60;;;;;;4934526;29;20497;-66
2022/06/26 13:05:01;;;;;;;4.83;4.70;;;31.30;84.80;;;;;;4935324;29;20484;-66
2022/06/26 13:07:28;;;;;;;4.70;4.60;;;31.40;86.20;;;;;;4935762;29;20877;-66
2022/06/26 13:09:55;;;;;;;4.43;4.23;;;31.30;86.30;;;;;;4935108;29;20465;-66
2022/06/26 13:12:23;;;;;;;4.73;4.50;;;31.30;86.60;;;;;;4935578;29;20499;-66
2022/06/26 13:14:50;;;;;;;4.53;4.40;;;31.10;87.00;;;;;;4934841;29;20819;-66
2022/06/26 13:17:17;;;;;;;4.17;4.00;;;31.00;86.70;;;;;;4935761;29;20579;-66
2022/06/26 13:19:44;;;;;;;4.60;4.57;;;30.90;87.10;;;;;;4935137;29;20471;-66
2022/06/26 13:22:11;;;;;;;4.63;4.43;;;30.80;86.60;;;;;;4933903;29;20531;-66
2022/06/26 13:24:38;;;;;;;4.53;4.33;;;30.80;87.00;;;;;;4934944;29;21001;-66
2022/06/26 13:27:05;;;;;;;4.30;4.20;;;30.80;86.90;;;;;;4935101;29;20469;-66
2022/06/26 13:29:33;;;;;;;4.30;4.00;;;30.70;86.50;;;;;;4934492;29;21123;-66
2022/06/26 13:32:00;;;;;;;4.53;4.43;;;30.40;87.30;;;;;;4935326;29;20489;-67
2022/06/26 13:34:29;;;;;;;4.83;4.73;;;30.40;88.00;;;;;;4934987;29;20479;-66
2022/06/26 13:36:55;;;;;;;4.87;4.73;;;30.30;87.90;;;;;;4934565;29;20469;-66
2022/06/26 13:39:22;;;;;;;4.70;4.50;;;30.30;88.80;;;;;;4934792;29;20465;-66
2022/06/26 13:41:49;;;;;;;5.53;5.43;;;30.40;89.80;;;;;;4934346;29;20488;-66
2022/06/26 13:44:16;;;;;;;5.10;5.00;;;30.30;90.10;;;;;;4934293;29;20572;-66
2022/06/26 13:46:44;;;;;;;5.23;5.03;;;30.10;90.30;;;;;;4933949;29;20469;-66
2022/06/26 13:49:11;;;;;;;5.00;4.90;;;30.00;90.70;;;;;;4934643;29;20503;-66
2022/06/26 13:51:39;;;;;;;5.70;5.50;;;29.90;91.20;;;;;;4934129;29;20576;-67
2022/06/26 13:54:06;;;;;;;5.10;5.00;;;29.80;90.90;;;;;;4929655;29;20482;-67
2022/06/26 13:56:33;;;;;;;7.00;6.33;;;29.70;91.20;;;;;;4934650;29;20472;-67
2022/06/26 13:58:59;;;;;;;5.80;5.50;;;29.50;91.50;;;;;;4934152;29;20982;-67
2022/06/26 14:01:26;;;;;;;5.87;5.37;;;29.50;91.80;;;;;;4934287;29;20496;-67
2022/06/26 14:03:54;;;;;;;5.93;5.60;;;29.40;92.20;;;;;;4935074;29;20472;-67
2022/06/26 14:06:21;;;;;;;5.77;5.47;;;29.50;92.80;;;;;;4934691;29;20808;-67
2022/06/26 14:08:48;;;;;;;6.10;5.90;;;29.60;92.90;;;;;;4934855;29;20586;-67
2022/06/26 14:11:15;;;;;;;6.23;5.83;;;29.40;92.60;;;;;;4935601;29;20492;-67
2022/06/26 14:13:42;;;;;;;6.03;5.83;;;29.30;93.00;;;;;;4935878;29;20555;-67
2022/06/26 14:16:09;;;;;;;6.30;6.00;;;29.20;93.00;;;;;;4935827;29;20533;-67
2022/06/26 14:18:36;;;;;;;6.10;5.90;;;29.10;93.20;;;;;;4935533;29;20463;-67
2022/06/26 14:21:04;;;;;;;6.57;6.30;;;28.90;93.40;;;;;;4933663;29;21023;-67
2022/06/26 14:26:16;;;;;;;7.67;7.30;;;28.80;94.80;;;;;;4934293;29;20976;-67
2022/06/26 14:28:43;;;;;;;7.70;7.40;;;28.70;95.50;;;;;;4933693;29;20518;-67
2022/06/26 14:31:10;;;;;;;7.97;7.33;;;28.60;95.80;;;;;;4933637;29;20505;-67
2022/06/26 14:33:37;;;;;;;7.60;7.40;;;28.40;96.50;;;;;;4933861;29;20555;-67
2022/06/26 14:36:06;;;;;;;7.40;6.90;;;28.40;96.90;;;;;;4933372;29;20470;-67
2022/06/26 14:38:34;;;;;;;7.47;7.07;;;28.40;97.00;;;;;;4934079;29;20469;-67
2022/06/26 14:41:02;;;;;;;7.57;7.37;;;28.30;97.30;;;;;;4933641;29;20885;-67
2022/06/26 14:43:29;;;;;;;7.10;6.70;;;28.20;97.70;;;;;;4931709;29;20470;-67
2022/06/26 14:45:56;;;;;;;7.80;7.40;;;28.20;97.90;;;;;;4933220;29;20473;-67
2022/06/26 14:48:23;;;;;;;6.90;6.70;;;28.20;98.50;;;;;;4933437;29;20854;-67
2022/06/26 14:50:50;;;;;;;6.97;6.77;;;28.20;98.80;;;;;;4932757;29;20820;-67
2022/06/26 14:53:19;;;;;;;6.90;6.60;;;28.30;98.50;;;;;;4933405;29;20909;-67
2022/06/26 14:55:45;;;;;;;6.70;6.50;;;28.40;98.40;;;;;;4933508;29;20497;-67
2022/06/26 14:58:15;;;;;;;7.27;6.87;;;28.30;98.30;;;;;;4933399;29;20465;-67
2022/06/26 15:00:42;;;;;;;6.73;6.53;;;28.40;98.50;;;;;;4932724;29;20494;-67
2022/06/26 15:03:09;;;;;;;7.07;6.87;;;28.30;98.20;;;;;;4933444;29;20472;-67
2022/06/26 15:05:36;;;;;;;6.43;6.20;;;28.20;98.30;;;;;;4933434;29;20471;-67
2022/06/26 15:08:02;;;;;;;6.73;6.47;;;28.20;98.80;;;;;;4933499;29;20467;-67
2022/06/26 15:10:30;;;;;;;5.83;5.73;;;28.10;98.60;;;;;;4933119;29;20870;-67
2022/06/26 15:12:57;;;;;;;7.10;6.90;;;28.10;98.60;;;;;;4933786;29;20738;-67
2022/06/26 15:15:24;;;;;;;6.47;6.10;;;28.00;98.50;;;;;;4932973;29;20470;-67
2022/06/26 15:17:51;;;;;;;6.87;6.63;;;28.00;98.80;;;;;;4933418;29;20473;-67
2022/06/26 15:20:17;;;;;;;5.73;5.53;;;28.00;99.20;;;;;;4931193;29;20469;-67
2022/06/26 15:22:44;;;;;;;6.40;6.10;;;28.20;99.40;;;;;;4933535;29;20469;-67
2022/06/26 15:25:11;;;;;;;6.33;6.10;;;28.20;98.90;;;;;;4933086;29;20461;-67
2022/06/26 15:27:39;;;;;;;6.10;5.67;;;28.20;98.30;;;;;;4933307;29;20978;-67
2022/06/26 15:30:06;;;;;;;6.27;5.97;;;28.00;98.40;;;;;;4932550;29;20500;-67
2022/06/26 15:32:33;;;;;;;6.23;6.07;;;28.00;98.50;;;;;;4933058;29;20485;-67
2022/06/26 15:35:00;;;;;;;6.77;6.50;;;28.10;98.50;;;;;;4932985;29;20466;-67
2022/06/26 15:37:27;;;;;;;5.77;5.57;;;28.10;98.40;;;;;;4933351;29;20907;-67
2022/06/26 15:39:53;;;;;;;5.10;5.00;;;28.10;98.50;;;;;;4932945;29;20470;-67
2022/06/26 15:42:21;;;;;;;5.87;5.70;;;28.10;98.50;;;;;;4933241;29;20839;-67
2022/06/26 15:44:49;;;;;;;5.87;5.57;;;28.00;98.70;;;;;;4932477;29;20970;-67
2022/06/26 15:47:15;;;;;;;5.37;5.07;;;28.00;98.70;;;;;;4932964;29;20474;-67
2022/06/26 15:49:42;;;;;;;5.90;5.70;;;28.00;99.10;;;;;;4932399;29;20493;-67
2022/06/26 15:52:09;;;;;;;5.43;5.23;;;28.10;99.20;;;;;;4929934;29;20498;-67
2022/06/26 15:54:36;;;;;;;6.07;5.93;;;28.10;99.30;;;;;;4931322;29;20470;-67
2022/06/26 15:57:02;;;;;;;5.87;5.67;;;28.10;99.10;;;;;;4933309;29;20960;-67
2022/06/26 15:59:29;;;;;;;5.43;5.10;;;28.10;98.80;;;;;;4932424;29;20576;-67
2022/06/26 16:01:57;;;;;;;5.40;5.30;;;28.00;99.00;;;;;;4932657;29;21011;-67
2022/06/26 16:04:24;;;;;;;5.93;5.57;;;27.90;99.00;;;;;;4933135;29;20474;-67
2022/06/26 16:06:50;;;;;;;4.90;4.80;;;27.80;99.20;;;;;;4932421;29;20466;-67
2022/06/26 16:09:17;;;;;;;5.67;5.17;;;27.80;99.40;;;;;;4934334;29;20492;-67
2022/06/26 16:11:44;;;;;;;4.80;4.70;;;27.70;99.70;;;;;;4935999;29;20998;-67
2022/06/26 16:14:10;;;;;;;5.33;5.20;;;27.70;99.90;;;;;;4960368;23;20648;-68
2022/06/26 16:16:37;;;;;;;5.63;5.23;;;27.70;99.90;;;;;;4936289;29;20477;-68
2022/06/26 16:19:05;;;;;;;5.63;5.23;;;27.70;99.90;;;;;;4936525;29;20461;-70
2022/06/26 16:21:32;;;;;;;5.00;5.00;;;27.60;99.90;;;;;;4936076;29;20808;-69
2022/06/26 16:26:43;;;;;;;5.23;4.93;;;27.40;99.90;;;;;;4917651;29;20453;-69
2022/06/26 16:29:09;;;;;;;5.63;5.20;;;27.40;99.90;;;;;;4916898;29;20494;-70
2022/06/26 16:31:36;;;;;;;4.73;4.63;;;27.30;99.90;;;;;;4917108;29;20474;-69
2022/06/26 16:34:04;;;;;;;5.47;5.27;;;27.30;99.90;;;;;;4916746;29;20471;-70
2022/06/26 16:36:32;;;;;;;4.70;4.50;;;27.30;99.90;;;;;;4917147;29;20489;-70
2022/06/26 16:38:59;;;;;;;3.70;3.70;;;27.30;99.90;;;;;;4916597;29;20471;-70
2022/06/26 16:41:27;;;;;;;4.30;4.10;;;27.30;99.90;;;;;;4916992;29;20498;-70
2022/06/26 16:43:54;;;;;;;4.20;4.10;;;27.30;99.90;;;;;;4916641;29;20513;-70
2022/06/26 16:46:21;;;;;;;4.40;4.10;;;27.30;99.90;;;;;;4916955;29;20486;-70
2022/06/26 16:48:47;;;;;;;4.93;4.57;;;27.20;99.90;;;;;;4916835;29;20491;-71
2022/06/26 16:51:15;;;;;;;4.00;3.70;;;27.10;99.90;;;;;;4916825;29;20477;-69
2022/06/26 16:53:42;;;;;;;3.60;3.60;;;27.00;99.90;;;;;;4916515;29;20959;-69
2022/06/26 16:56:09;;;;;;;3.73;3.63;;;26.90;99.90;;;;;;4917019;29;20505;-69
2022/06/26 16:58:36;;;;;;;3.60;3.50;;;26.90;99.90;;;;;;4916877;29;20466;-70
2022/06/26 17:01:03;;;;;;;3.90;3.80;;;27.00;99.90;;;;;;4916702;29;20476;-69
2022/06/26 17:03:30;;;;;;;3.70;3.70;;;27.00;99.90;;;;;;4916717;29;20481;-70
2022/06/26 17:05:57;;;;;;;3.97;3.80;;;27.00;99.90;;;;;;4916548;29;20486;-70
2022/06/26 17:08:25;;;;;;;3.77;3.67;;;27.00;99.90;;;;;;4916729;29;20836;-69